sensor_id;sensor_type;location;lat;lon;timestamp;temperature;humidity
23251;DHT22;11794;49.730;10.088;2024-03-17T00:01:50;5.90;99.90
23251;DHT22;11794;49.730;10.088;2024-03-17T00:04:15;5.90;99.90
23251;DHT22;11794;49.730;10.088;2024-03-17T00:06:41;5.90;99.90
23251;DHT22;11794;49.730;10.088;2024-03-17T00:09:06;6.00;99.90
23251;DHT22;11794;49.730;10.088;2024-03-17T00:11:35;6.00;99.90
23251;DHT22;11794;49.730;10.088;2024-03-17T00:14:01;6.00;99.90
23251;DHT22;11794;49.730;10.088;2024-03-17T00:16:26;6.00;99.90
23251;DHT22;11794;49.730;10.088;2024-03-17T00:18:52;6.10;99.90
23251;DHT22;11794;49.730;10.088;2024-03-17T00:21:18;6.10;99.90
23251;DHT22;11794;49.730;10.088;2024-03-17T00:23:47;6.20;99.90
23251;DHT22;11794;49.730;10.088;2024-03-17T00:26:12;6.10;99.90
23251;DHT22;11794;49.730;10.088;2024-03-17T00:28:38;6.00;99.90
23251;DHT22;11794;49.730;10.088;2024-03-17T00:31:05;6.00;99.90
23251;DHT22;11794;49.730;10.088;2024-03-17T00:33:30;6.00;99.90
23251;DHT22;11794;49.730;10.088;2024-03-17T00:35:56;6.00;99.90
23251;DHT22;11794;49.730;10.088;2024-03-17T00:38:21;6.00;99.90
23251;DHT22;11794;49.730;10.088;2024-03-17T00:40:47;6.00;99.90
23251;DHT22;11794;49.730;10.088;2024-03-17T00:43:14;6.00;99.90
23251;DHT22;11794;49.730;10.088;2024-03-17T00:45:40;5.90;99.90
23251;DHT22;11794;49.730;10.088;2024-03-17T00:48:05;5.90;99.90
23251;DHT22;11794;49.730;10.088;2024-03-17T00:50:35;6.00;99.90
23251;DHT22;11794;49.730;10.088;2024-03-17T00:53:00;5.90;99.90
23251;DHT22;11794;49.730;10.088;2024-03-17T00:55:28;5.90;99.90
23251;DHT22;11794;49.730;10.088;2024-03-17T00:57:54;5.90;99.90
23251;DHT22;11794;49.730;10.088;2024-03-17T01:00:19;5.90;99.90
23251;DHT22;11794;49.730;10.088;2024-03-17T01:02:45;5.90;99.90
23251;DHT22;11794;49.730;10.088;2024-03-17T01:05:11;5.90;99.90
23251;DHT22;11794;49.730;10.088;2024-03-17T01:07:37;5.90;99.90
23251;DHT22;11794;49.730;10.088;2024-03-17T01:10:02;5.90;99.90
23251;DHT22;11794;49.730;10.088;2024-03-17T01:12:28;5.80;99.90
23251;DHT22;11794;49.730;10.088;2024-03-17T01:14:53;5.80;99.90
23251;DHT22;11794;49.730;10.088;2024-03-17T01:17:19;5.70;99.90
23251;DHT22;11794;49.730;10.088;2024-03-17T01:19:44;5.60;99.90
23251;DHT22;11794;49.730;10.088;2024-03-17T01:22:10;5.70;99.90
23251;DHT22;11794;49.730;10.088;2024-03-17T01:24:36;5.60;99.90
23251;DHT22;11794;49.730;10.088;2024-03-17T01:27:02;5.50;99.90
23251;DHT22;11794;49.730;10.088;2024-03-17T01:29:28;5.60;99.90
23251;DHT22;11794;49.730;10.088;2024-03-17T01:31:54;5.60;99.90
23251;DHT22;11794;49.730;10.088;2024-03-17T01:34:19;5.50;99.90
23251;DHT22;11794;49.730;10.088;2024-03-17T01:36:45;5.40;99.90
23251;DHT22;11794;49.730;10.088;2024-03-17T01:39:11;5.30;99.90
23251;DHT22;11794;49.730;10.088;2024-03-17T01:41:36;5.20;99.90
23251;DHT22;11794;49.730;10.088;2024-03-17T01:44:02;5.20;99.90
23251;DHT22;11794;49.730;10.088;2024-03-17T01:46:28;5.10;99.90
23251;DHT22;11794;49.730;10.088;2024-03-17T01:48:54;5.10;99.90
23251;DHT22;11794;49.730;10.088;2024-03-17T01:51:20;5.00;99.90
23251;DHT22;11794;49.730;10.088;2024-03-17T01:53:46;5.00;99.90
23251;DHT22;11794;49.730;10.088;2024-03-17T01:56:12;4.90;99.90
23251;DHT22;11794;49.730;10.088;2024-03-17T01:58:39;4.90;99.90
23251;DHT22;11794;49.730;10.088;2024-03-17T02:01:07;4.90;99.90
23251;DHT22;11794;49.730;10.088;2024-03-17T02:03:33;4.80;99.90
23251;DHT22;11794;49.730;10.088;2024-03-17T02:05:59;4.70;99.90
23251;DHT22;11794;49.730;10.088;2024-03-17T02:08:25;4.70;99.90
23251;DHT22;11794;49.730;10.088;2024-03-17T02:10:56;4.60;99.90
23251;DHT22;11794;49.730;10.088;2024-03-17T02:13:22;4.50;99.90
23251;DHT22;11794;49.730;10.088;2024-03-17T02:15:48;4.40;99.90
23251;DHT22;11794;49.730;10.088;2024-03-17T02:18:14;4.40;99.90
23251;DHT22;11794;49.730;10.088;2024-03-17T02:20:39;4.20;99.90
23251;DHT22;11794;49.730;10.088;2024-03-17T02:23:20;4.20;99.90
23251;DHT22;11794;49.730;10.088;2024-03-17T02:25:46;4.20;99.90
23251;DHT22;11794;49.730;10.088;2024-03-17T02:28:13;4.10;99.90
23251;DHT22;11794;49.730;10.088;2024-03-17T02:30:38;4.10;99.90
23251;DHT22;11794;49.730;10.088;2024-03-17T02:33:04;4.20;99.90
23251;DHT22;11794;49.730;10.088;2024-03-17T02:35:30;4.20;99.90
23251;DHT22;11794;49.730;10.088;2024-03-17T02:37:55;4.10;99.90
23251;DHT22;11794;49.730;10.088;2024-03-17T02:40:20;4.10;99.90
23251;DHT22;11794;49.730;10.088;2024-03-17T02:42:46;4.00;99.90
23251;DHT22;11794;49.730;10.088;2024-03-17T02:45:12;4.00;99.90
23251;DHT22;11794;49.730;10.088;2024-03-17T02:47:38;4.00;99.90
23251;DHT22;11794;49.730;10.088;2024-03-17T02:50:04;3.90;99.90
23251;DHT22;11794;49.730;10.088;2024-03-17T02:52:30;3.80;99.90
23251;DHT22;11794;49.730;10.088;2024-03-17T02:54:55;3.70;99.90
23251;DHT22;11794;49.730;10.088;2024-03-17T02:57:22;3.70;99.90
23251;DHT22;11794;49.730;10.088;2024-03-17T02:59:57;3.70;99.90
23251;DHT22;11794;49.730;10.088;2024-03-17T03:02:23;3.70;99.90
23251;DHT22;11794;49.730;10.088;2024-03-17T03:04:48;3.70;99.90
23251;DHT22;11794;49.730;10.088;2024-03-17T03:07:14;3.70;99.90
23251;DHT22;11794;49.730;10.088;2024-03-17T03:09:40;3.70;99.90
23251;DHT22;11794;49.730;10.088;2024-03-17T03:12:05;3.70;99.90
23251;DHT22;11794;49.730;10.088;2024-03-17T03:14:33;3.70;99.90
23251;DHT22;11794;49.730;10.088;2024-03-17T03:16:58;3.60;99.90
23251;DHT22;11794;49.730;10.088;2024-03-17T03:19:24;3.60;99.90
23251;DHT22;11794;49.730;10.088;2024-03-17T03:21:49;3.50;99.90
23251;DHT22;11794;49.730;10.088;2024-03-17T03:24:15;3.40;99.90
23251;DHT22;11794;49.730;10.088;2024-03-17T03:26:41;3.40;99.90
23251;DHT22;11794;49.730;10.088;2024-03-17T03:29:07;3.40;99.90
23251;DHT22;11794;49.730;10.088;2024-03-17T03:31:33;3.30;99.90
23251;DHT22;11794;49.730;10.088;2024-03-17T03:33:59;3.40;99.90
23251;DHT22;11794;49.730;10.088;2024-03-17T03:36:27;3.40;99.90
23251;DHT22;11794;49.730;10.088;2024-03-17T03:38:53;3.50;99.90
23251;DHT22;11794;49.730;10.088;2024-03-17T03:41:19;3.50;99.90
23251;DHT22;11794;49.730;10.088;2024-03-17T03:43:44;3.50;99.90
23251;DHT22;11794;49.730;10.088;2024-03-17T03:46:12;3.50;99.90
23251;DHT22;11794;49.730;10.088;2024-03-17T03:48:37;3.50;99.90
23251;DHT22;11794;49.730;10.088;2024-03-17T03:51:07;3.50;99.90
23251;DHT22;11794;49.730;10.088;2024-03-17T03:53:33;3.60;99.90
23251;DHT22;11794;49.730;10.088;2024-03-17T03:56:00;3.50;99.90
23251;DHT22;11794;49.730;10.088;2024-03-17T03:58:29;3.60;99.90
23251;DHT22;11794;49.730;10.088;2024-03-17T04:00:55;3.60;99.90
23251;DHT22;11794;49.730;10.088;2024-03-17T04:03:21;3.60;99.90
23251;DHT22;11794;49.730;10.088;2024-03-17T04:05:47;3.70;99.90
23251;DHT22;11794;49.730;10.088;2024-03-17T04:08:13;3.70;99.90
23251;DHT22;11794;49.730;10.088;2024-03-17T04:10:38;3.70;99.90
23251;DHT22;11794;49.730;10.088;2024-03-17T04:13:04;3.80;99.90
23251;DHT22;11794;49.730;10.088;2024-03-17T04:15:29;3.70;99.90
23251;DHT22;11794;49.730;10.088;2024-03-17T04:17:55;3.70;99.90
23251;DHT22;11794;49.730;10.088;2024-03-17T04:20:20;3.60;99.90
23251;DHT22;11794;49.730;10.088;2024-03-17T04:22:46;3.70;99.90
23251;DHT22;11794;49.730;10.088;2024-03-17T04:25:14;3.70;99.90
23251;DHT22;11794;49.730;10.088;2024-03-17T04:27:39;3.70;99.90
23251;DHT22;11794;49.730;10.088;2024-03-17T04:30:08;3.60;99.90
23251;DHT22;11794;49.730;10.088;2024-03-17T04:32:34;3.60;99.90
23251;DHT22;11794;49.730;10.088;2024-03-17T04:35:00;3.70;99.90
23251;DHT22;11794;49.730;10.088;2024-03-17T04:37:26;3.70;99.90
23251;DHT22;11794;49.730;10.088;2024-03-17T04:39:51;3.60;99.90
23251;DHT22;11794;49.730;10.088;2024-03-17T04:42:17;3.60;99.90
23251;DHT22;11794;49.730;10.088;2024-03-17T04:44:44;3.60;99.90
23251;DHT22;11794;49.730;10.088;2024-03-17T04:47:10;3.60;99.90
23251;DHT22;11794;49.730;10.088;2024-03-17T04:49:40;3.70;99.90
23251;DHT22;11794;49.730;10.088;2024-03-17T04:52:08;3.70;99.90
23251;DHT22;11794;49.730;10.088;2024-03-17T04:54:34;3.70;99.90
23251;DHT22;11794;49.730;10.088;2024-03-17T04:57:00;3.70;99.90
23251;DHT22;11794;49.730;10.088;2024-03-17T04:59:26;3.70;99.90
23251;DHT22;11794;49.730;10.088;2024-03-17T05:01:52;3.70;99.90
23251;DHT22;11794;49.730;10.088;2024-03-17T05:04:18;3.70;99.90
23251;DHT22;11794;49.730;10.088;2024-03-17T05:06:44;3.80;99.90
23251;DHT22;11794;49.730;10.088;2024-03-17T05:09:13;3.90;99.90
23251;DHT22;11794;49.730;10.088;2024-03-17T05:11:39;3.90;99.90
23251;DHT22;11794;49.730;10.088;2024-03-17T05:14:05;3.90;99.90
23251;DHT22;11794;49.730;10.088;2024-03-17T05:16:30;3.90;99.90
23251;DHT22;11794;49.730;10.088;2024-03-17T05:18:56;3.90;99.90
23251;DHT22;11794;49.730;10.088;2024-03-17T05:21:22;4.00;99.90
23251;DHT22;11794;49.730;10.088;2024-03-17T05:23:49;4.00;99.90
23251;DHT22;11794;49.730;10.088;2024-03-17T05:26:14;4.00;99.90
23251;DHT22;11794;49.730;10.088;2024-03-17T05:28:40;4.00;99.90
23251;DHT22;11794;49.730;10.088;2024-03-17T05:31:05;4.00;99.90
23251;DHT22;11794;49.730;10.088;2024-03-17T05:33:31;4.00;99.90
23251;DHT22;11794;49.730;10.088;2024-03-17T05:35:58;4.10;99.90
23251;DHT22;11794;49.730;10.088;2024-03-17T05:38:29;4.10;99.90
23251;DHT22;11794;49.730;10.088;2024-03-17T05:40:56;4.10;99.90
23251;DHT22;11794;49.730;10.088;2024-03-17T05:43:23;4.20;99.90
23251;DHT22;11794;49.730;10.088;2024-03-17T05:45:59;4.20;99.90
23251;DHT22;11794;49.730;10.088;2024-03-17T05:48:25;4.20;99.90
23251;DHT22;11794;49.730;10.088;2024-03-17T05:50:51;4.30;99.90
23251;DHT22;11794;49.730;10.088;2024-03-17T05:53:17;4.30;99.90
23251;DHT22;11794;49.730;10.088;2024-03-17T05:55:44;4.30;99.90
23251;DHT22;11794;49.730;10.088;2024-03-17T05:58:10;4.30;99.90
23251;DHT22;11794;49.730;10.088;2024-03-17T06:00:36;4.30;99.90
23251;DHT22;11794;49.730;10.088;2024-03-17T06:03:03;4.20;99.90
23251;DHT22;11794;49.730;10.088;2024-03-17T06:05:34;4.30;99.90
23251;DHT22;11794;49.730;10.088;2024-03-17T06:08:04;4.40;99.90
23251;DHT22;11794;49.730;10.088;2024-03-17T06:10:31;4.40;99.90
23251;DHT22;11794;49.730;10.088;2024-03-17T06:12:58;4.50;99.90
23251;DHT22;11794;49.730;10.088;2024-03-17T06:15:24;4.60;99.90
23251;DHT22;11794;49.730;10.088;2024-03-17T06:17:50;4.50;99.90
23251;DHT22;11794;49.730;10.088;2024-03-17T06:20:20;4.60;99.90
23251;DHT22;11794;49.730;10.088;2024-03-17T06:22:46;4.50;99.90
23251;DHT22;11794;49.730;10.088;2024-03-17T06:25:12;4.50;99.90
23251;DHT22;11794;49.730;10.088;2024-03-17T06:27:38;4.40;99.90
23251;DHT22;11794;49.730;10.088;2024-03-17T06:30:04;4.40;99.90
23251;DHT22;11794;49.730;10.088;2024-03-17T06:32:31;4.40;99.90
23251;DHT22;11794;49.730;10.088;2024-03-17T06:34:57;4.40;99.90
23251;DHT22;11794;49.730;10.088;2024-03-17T06:37:24;4.60;99.90
23251;DHT22;11794;49.730;10.088;2024-03-17T06:39:49;4.80;99.90
23251;DHT22;11794;49.730;10.088;2024-03-17T06:42:15;4.90;99.90
23251;DHT22;11794;49.730;10.088;2024-03-17T06:44:41;5.10;99.90
23251;DHT22;11794;49.730;10.088;2024-03-17T06:47:06;5.30;99.90
23251;DHT22;11794;49.730;10.088;2024-03-17T06:49:32;5.40;99.90
23251;DHT22;11794;49.730;10.088;2024-03-17T06:51:58;5.80;99.90
23251;DHT22;11794;49.730;10.088;2024-03-17T06:54:23;6.10;99.90
23251;DHT22;11794;49.730;10.088;2024-03-17T06:56:49;6.80;99.90
23251;DHT22;11794;49.730;10.088;2024-03-17T06:59:16;7.50;99.90
23251;DHT22;11794;49.730;10.088;2024-03-17T07:01:41;7.80;99.90
23251;DHT22;11794;49.730;10.088;2024-03-17T07:04:07;8.00;99.90
23251;DHT22;11794;49.730;10.088;2024-03-17T07:06:32;7.90;99.90
23251;DHT22;11794;49.730;10.088;2024-03-17T07:08:58;7.80;99.90
23251;DHT22;11794;49.730;10.088;2024-03-17T07:11:23;7.80;99.90
23251;DHT22;11794;49.730;10.088;2024-03-17T07:13:49;7.70;99.90
23251;DHT22;11794;49.730;10.088;2024-03-17T07:16:19;7.90;99.90
23251;DHT22;11794;49.730;10.088;2024-03-17T07:18:46;8.20;99.90
23251;DHT22;11794;49.730;10.088;2024-03-17T07:21:12;8.60;99.90
23251;DHT22;11794;49.730;10.088;2024-03-17T07:23:38;9.00;99.90
23251;DHT22;11794;49.730;10.088;2024-03-17T07:26:04;9.50;99.90
23251;DHT22;11794;49.730;10.088;2024-03-17T07:28:34;9.70;99.90
23251;DHT22;11794;49.730;10.088;2024-03-17T07:31:00;8.80;99.90
23251;DHT22;11794;49.730;10.088;2024-03-17T07:33:26;9.20;99.90
23251;DHT22;11794;49.730;10.088;2024-03-17T07:35:56;10.00;99.90
23251;DHT22;11794;49.730;10.088;2024-03-17T07:38:23;10.80;99.90
23251;DHT22;11794;49.730;10.088;2024-03-17T07:41:02;11.20;99.90
23251;DHT22;11794;49.730;10.088;2024-03-17T07:43:29;11.70;99.90
23251;DHT22;11794;49.730;10.088;2024-03-17T07:46:06;12.00;99.90
23251;DHT22;11794;49.730;10.088;2024-03-17T07:48:34;12.20;99.90
23251;DHT22;11794;49.730;10.088;2024-03-17T07:51:02;12.20;99.90
23251;DHT22;11794;49.730;10.088;2024-03-17T07:53:32;12.40;99.90
23251;DHT22;11794;49.730;10.088;2024-03-17T07:56:05;12.80;99.90
23251;DHT22;11794;49.730;10.088;2024-03-17T07:58:32;13.00;99.90
23251;DHT22;11794;49.730;10.088;2024-03-17T08:01:02;12.90;99.90
23251;DHT22;11794;49.730;10.088;2024-03-17T08:03:29;12.80;99.90
23251;DHT22;11794;49.730;10.088;2024-03-17T08:05:55;13.00;99.90
23251;DHT22;11794;49.730;10.088;2024-03-17T08:08:21;13.50;99.90
23251;DHT22;11794;49.730;10.088;2024-03-17T08:10:47;13.70;99.90
23251;DHT22;11794;49.730;10.088;2024-03-17T08:13:17;13.70;99.90
23251;DHT22;11794;49.730;10.088;2024-03-17T08:15:43;14.30;99.90
23251;DHT22;11794;49.730;10.088;2024-03-17T08:18:09;14.90;99.90
23251;DHT22;11794;49.730;10.088;2024-03-17T08:20:38;15.10;99.90
23251;DHT22;11794;49.730;10.088;2024-03-17T08:23:13;14.80;99.90
23251;DHT22;11794;49.730;10.088;2024-03-17T08:25:39;14.60;99.90
23251;DHT22;11794;49.730;10.088;2024-03-17T08:28:05;14.30;99.90
23251;DHT22;11794;49.730;10.088;2024-03-17T08:30:31;14.30;99.90
23251;DHT22;11794;49.730;10.088;2024-03-17T08:32:57;14.80;99.90
23251;DHT22;11794;49.730;10.088;2024-03-17T08:35:22;15.10;99.90
23251;DHT22;11794;49.730;10.088;2024-03-17T08:37:48;15.40;99.90
23251;DHT22;11794;49.730;10.088;2024-03-17T08:40:14;15.90;99.90
23251;DHT22;11794;49.730;10.088;2024-03-17T08:42:39;15.90;99.90
23251;DHT22;11794;49.730;10.088;2024-03-17T08:45:06;16.20;99.90
23251;DHT22;11794;49.730;10.088;2024-03-17T08:47:31;16.40;99.90
23251;DHT22;11794;49.730;10.088;2024-03-17T08:49:57;16.30;99.90
23251;DHT22;11794;49.730;10.088;2024-03-17T08:52:23;16.30;99.90
23251;DHT22;11794;49.730;10.088;2024-03-17T08:54:49;16.60;99.90
23251;DHT22;11794;49.730;10.088;2024-03-17T08:57:17;16.20;99.90
23251;DHT22;11794;49.730;10.088;2024-03-17T08:59:45;16.30;99.90
23251;DHT22;11794;49.730;10.088;2024-03-17T09:02:13;16.30;99.90
23251;DHT22;11794;49.730;10.088;2024-03-17T09:04:40;16.50;99.90
23251;DHT22;11794;49.730;10.088;2024-03-17T09:07:06;16.60;99.90
23251;DHT22;11794;49.730;10.088;2024-03-17T09:09:31;16.70;99.90
23251;DHT22;11794;49.730;10.088;2024-03-17T09:11:57;16.80;99.90
23251;DHT22;11794;49.730;10.088;2024-03-17T09:14:22;16.90;99.90
23251;DHT22;11794;49.730;10.088;2024-03-17T09:16:48;17.00;99.90
23251;DHT22;11794;49.730;10.088;2024-03-17T09:19:14;17.10;99.90
23251;DHT22;11794;49.730;10.088;2024-03-17T09:21:39;17.50;99.90
23251;DHT22;11794;49.730;10.088;2024-03-17T09:24:06;18.00;99.90
23251;DHT22;11794;49.730;10.088;2024-03-17T09:26:35;18.00;99.90
23251;DHT22;11794;49.730;10.088;2024-03-17T09:29:03;18.20;99.90
23251;DHT22;11794;49.730;10.088;2024-03-17T09:31:29;18.10;99.90
23251;DHT22;11794;49.730;10.088;2024-03-17T09:33:56;17.90;99.90
23251;DHT22;11794;49.730;10.088;2024-03-17T09:36:21;17.60;99.90
23251;DHT22;11794;49.730;10.088;2024-03-17T09:38:47;17.10;99.90
23251;DHT22;11794;49.730;10.088;2024-03-17T09:41:21;17.40;99.90
23251;DHT22;11794;49.730;10.088;2024-03-17T09:43:48;17.40;99.90
23251;DHT22;11794;49.730;10.088;2024-03-17T09:46:15;17.80;99.50
23251;DHT22;11794;49.730;10.088;2024-03-17T09:48:41;17.50;99.60
23251;DHT22;11794;49.730;10.088;2024-03-17T09:51:08;17.80;99.90
23251;DHT22;11794;49.730;10.088;2024-03-17T09:53:41;18.50;99.60
23251;DHT22;11794;49.730;10.088;2024-03-17T09:56:12;18.90;99.70
23251;DHT22;11794;49.730;10.088;2024-03-17T09:58:37;18.50;97.80
23251;DHT22;11794;49.730;10.088;2024-03-17T10:01:03;18.30;98.60
23251;DHT22;11794;49.730;10.088;2024-03-17T10:03:46;17.80;97.30
23251;DHT22;11794;49.730;10.088;2024-03-17T10:06:17;17.10;98.10
23251;DHT22;11794;49.730;10.088;2024-03-17T10:08:45;17.10;99.90
23251;DHT22;11794;49.730;10.088;2024-03-17T10:11:12;17.20;99.20
23251;DHT22;11794;49.730;10.088;2024-03-17T10:13:39;17.50;97.90
23251;DHT22;11794;49.730;10.088;2024-03-17T10:16:05;18.10;98.10
23251;DHT22;11794;49.730;10.088;2024-03-17T10:18:30;18.30;97.60
23251;DHT22;11794;49.730;10.088;2024-03-17T10:20:56;19.10;97.40
23251;DHT22;11794;49.730;10.088;2024-03-17T10:23:23;18.90;96.10
23251;DHT22;11794;49.730;10.088;2024-03-17T10:25:49;17.60;95.80
23251;DHT22;11794;49.730;10.088;2024-03-17T10:28:17;16.90;96.90
23251;DHT22;11794;49.730;10.088;2024-03-17T10:30:57;16.60;96.30
23251;DHT22;11794;49.730;10.088;2024-03-17T10:33:23;16.50;97.80
23251;DHT22;11794;49.730;10.088;2024-03-17T10:35:59;16.50;98.60
23251;DHT22;11794;49.730;10.088;2024-03-17T10:38:30;16.80;96.60
23251;DHT22;11794;49.730;10.088;2024-03-17T10:40:57;16.60;95.90
23251;DHT22;11794;49.730;10.088;2024-03-17T10:43:22;16.60;96.80
23251;DHT22;11794;49.730;10.088;2024-03-17T10:45:54;17.50;95.40
23251;DHT22;11794;49.730;10.088;2024-03-17T10:48:20;18.70;94.60
23251;DHT22;11794;49.730;10.088;2024-03-17T10:50:48;18.20;93.60
23251;DHT22;11794;49.730;10.088;2024-03-17T10:53:17;18.20;93.80
23251;DHT22;11794;49.730;10.088;2024-03-17T10:55:46;18.50;94.10
23251;DHT22;11794;49.730;10.088;2024-03-17T10:58:34;18.90;93.10
23251;DHT22;11794;49.730;10.088;2024-03-17T11:01:02;18.90;94.10
23251;DHT22;11794;49.730;10.088;2024-03-17T11:03:33;19.10;92.80
23251;DHT22;11794;49.730;10.088;2024-03-17T11:06:02;19.20;94.20
23251;DHT22;11794;49.730;10.088;2024-03-17T11:08:31;19.20;94.70
23251;DHT22;11794;49.730;10.088;2024-03-17T11:10:57;19.60;93.70
23251;DHT22;11794;49.730;10.088;2024-03-17T11:13:27;19.70;91.80
23251;DHT22;11794;49.730;10.088;2024-03-17T11:15:54;19.10;92.00
23251;DHT22;11794;49.730;10.088;2024-03-17T11:21:05;18.20;92.60
23251;DHT22;11794;49.730;10.088;2024-03-17T11:23:40;17.80;93.30
23251;DHT22;11794;49.730;10.088;2024-03-17T11:26:07;18.00;93.40
23251;DHT22;11794;49.730;10.088;2024-03-17T11:31:35;18.90;94.10
23251;DHT22;11794;49.730;10.088;2024-03-17T11:34:02;19.60;91.60
23251;DHT22;11794;49.730;10.088;2024-03-17T11:39:05;19.40;91.50
23251;DHT22;11794;49.730;10.088;2024-03-17T11:41:52;19.50;92.70
23251;DHT22;11794;49.730;10.088;2024-03-17T11:46:56;18.80;92.90
23251;DHT22;11794;49.730;10.088;2024-03-17T11:49:28;18.60;92.10
23251;DHT22;11794;49.730;10.088;2024-03-17T11:51:56;18.60;92.30
23251;DHT22;11794;49.730;10.088;2024-03-17T11:54:27;18.20;92.30
23251;DHT22;11794;49.730;10.088;2024-03-17T11:56:55;18.00;92.20
23251;DHT22;11794;49.730;10.088;2024-03-17T11:59:22;17.80;92.40
23251;DHT22;11794;49.730;10.088;2024-03-17T12:01:51;17.80;92.80
23251;DHT22;11794;49.730;10.088;2024-03-17T12:04:18;17.30;93.20
23251;DHT22;11794;49.730;10.088;2024-03-17T12:06:52;17.80;94.80
23251;DHT22;11794;49.730;10.088;2024-03-17T12:12:04;17.60;95.30
23251;DHT22;11794;49.730;10.088;2024-03-17T12:14:31;17.80;94.00
23251;DHT22;11794;49.730;10.088;2024-03-17T12:17:03;17.70;94.60
23251;DHT22;11794;49.730;10.088;2024-03-17T12:19:29;17.60;95.30
23251;DHT22;11794;49.730;10.088;2024-03-17T12:21:56;17.50;94.20
23251;DHT22;11794;49.730;10.088;2024-03-17T12:24:24;17.30;94.80
23251;DHT22;11794;49.730;10.088;2024-03-17T12:26:51;16.60;94.90
23251;DHT22;11794;49.730;10.088;2024-03-17T12:31:57;17.00;96.10
23251;DHT22;11794;49.730;10.088;2024-03-17T12:34:26;17.40;95.70
23251;DHT22;11794;49.730;10.088;2024-03-17T12:36:53;17.40;94.20
23251;DHT22;11794;49.730;10.088;2024-03-17T12:39:26;16.90;96.30
23251;DHT22;11794;49.730;10.088;2024-03-17T12:42:16;16.50;96.10
23251;DHT22;11794;49.730;10.088;2024-03-17T12:44:57;16.50;97.80
23251;DHT22;11794;49.730;10.088;2024-03-17T12:47:24;16.50;97.00
23251;DHT22;11794;49.730;10.088;2024-03-17T12:49:53;16.00;96.80
23251;DHT22;11794;49.730;10.088;2024-03-17T12:52:22;15.70;97.60
23251;DHT22;11794;49.730;10.088;2024-03-17T12:55:02;15.80;97.70
23251;DHT22;11794;49.730;10.088;2024-03-17T12:57:48;16.20;97.30
23251;DHT22;11794;49.730;10.088;2024-03-17T13:00:33;16.40;97.40
23251;DHT22;11794;49.730;10.088;2024-03-17T13:03:00;17.10;97.40
23251;DHT22;11794;49.730;10.088;2024-03-17T13:05:26;17.80;96.80
23251;DHT22;11794;49.730;10.088;2024-03-17T13:07:53;18.20;96.60
23251;DHT22;11794;49.730;10.088;2024-03-17T13:10:20;19.20;95.40
23251;DHT22;11794;49.730;10.088;2024-03-17T13:12:47;19.70;94.30
23251;DHT22;11794;49.730;10.088;2024-03-17T13:15:16;19.90;93.00
23251;DHT22;11794;49.730;10.088;2024-03-17T13:17:45;19.80;93.50
23251;DHT22;11794;49.730;10.088;2024-03-17T13:20:14;18.90;94.30
23251;DHT22;11794;49.730;10.088;2024-03-17T13:22:44;18.70;95.50
23251;DHT22;11794;49.730;10.088;2024-03-17T13:25:20;18.70;94.80
23251;DHT22;11794;49.730;10.088;2024-03-17T13:27:48;18.30;95.00
23251;DHT22;11794;49.730;10.088;2024-03-17T13:30:19;18.00;95.50
23251;DHT22;11794;49.730;10.088;2024-03-17T13:32:45;17.90;96.40
23251;DHT22;11794;49.730;10.088;2024-03-17T13:35:21;17.70;96.10
23251;DHT22;11794;49.730;10.088;2024-03-17T13:37:48;17.60;96.50
23251;DHT22;11794;49.730;10.088;2024-03-17T13:40:15;17.70;95.70
23251;DHT22;11794;49.730;10.088;2024-03-17T13:42:46;18.00;95.50
23251;DHT22;11794;49.730;10.088;2024-03-17T13:45:16;18.00;96.00
23251;DHT22;11794;49.730;10.088;2024-03-17T13:47:47;17.70;95.40
23251;DHT22;11794;49.730;10.088;2024-03-17T13:50:13;17.30;95.30
23251;DHT22;11794;49.730;10.088;2024-03-17T13:52:40;17.00;95.70
23251;DHT22;11794;49.730;10.088;2024-03-17T13:55:06;17.00;96.40
23251;DHT22;11794;49.730;10.088;2024-03-17T13:57:36;16.80;96.70
23251;DHT22;11794;49.730;10.088;2024-03-17T14:00:02;16.50;97.30
23251;DHT22;11794;49.730;10.088;2024-03-17T14:02:29;16.20;97.70
23251;DHT22;11794;49.730;10.088;2024-03-17T14:04:55;15.90;98.10
23251;DHT22;11794;49.730;10.088;2024-03-17T14:07:20;15.80;97.90
23251;DHT22;11794;49.730;10.088;2024-03-17T14:09:46;15.70;97.90
23251;DHT22;11794;49.730;10.088;2024-03-17T14:12:12;15.90;98.60
23251;DHT22;11794;49.730;10.088;2024-03-17T14:14:37;15.90;99.20
23251;DHT22;11794;49.730;10.088;2024-03-17T14:17:03;15.80;98.00
23251;DHT22;11794;49.730;10.088;2024-03-17T14:19:28;15.80;98.00
23251;DHT22;11794;49.730;10.088;2024-03-17T14:21:54;16.10;96.80
23251;DHT22;11794;49.730;10.088;2024-03-17T14:24:20;16.40;97.40
23251;DHT22;11794;49.730;10.088;2024-03-17T14:26:46;16.20;97.90
23251;DHT22;11794;49.730;10.088;2024-03-17T14:29:12;15.80;98.20
23251;DHT22;11794;49.730;10.088;2024-03-17T14:31:37;15.30;98.80
23251;DHT22;11794;49.730;10.088;2024-03-17T14:34:04;14.80;98.80
23251;DHT22;11794;49.730;10.088;2024-03-17T14:36:33;14.70;99.30
23251;DHT22;11794;49.730;10.088;2024-03-17T14:38:59;14.60;99.60
23251;DHT22;11794;49.730;10.088;2024-03-17T14:41:28;14.70;99.40
23251;DHT22;11794;49.730;10.088;2024-03-17T14:43:53;14.70;99.20
23251;DHT22;11794;49.730;10.088;2024-03-17T14:46:19;14.80;99.40
23251;DHT22;11794;49.730;10.088;2024-03-17T14:48:44;14.80;99.40
23251;DHT22;11794;49.730;10.088;2024-03-17T14:51:10;14.70;98.50
23251;DHT22;11794;49.730;10.088;2024-03-17T14:53:36;14.50;99.30
23251;DHT22;11794;49.730;10.088;2024-03-17T14:56:08;14.40;99.60
23251;DHT22;11794;49.730;10.088;2024-03-17T14:58:33;14.40;99.70
23251;DHT22;11794;49.730;10.088;2024-03-17T15:00:59;14.50;99.50
23251;DHT22;11794;49.730;10.088;2024-03-17T15:03:25;14.60;99.50
23251;DHT22;11794;49.730;10.088;2024-03-17T15:05:50;14.80;99.00
23251;DHT22;11794;49.730;10.088;2024-03-17T15:08:17;14.80;99.50
23251;DHT22;11794;49.730;10.088;2024-03-17T15:10:42;14.80;99.90
23251;DHT22;11794;49.730;10.088;2024-03-17T15:13:08;14.40;99.90
23251;DHT22;11794;49.730;10.088;2024-03-17T15:15:36;14.20;98.80
23251;DHT22;11794;49.730;10.088;2024-03-17T15:18:01;14.20;99.60
23251;DHT22;11794;49.730;10.088;2024-03-17T15:20:27;14.30;99.80
23251;DHT22;11794;49.730;10.088;2024-03-17T15:22:52;14.30;99.80
23251;DHT22;11794;49.730;10.088;2024-03-17T15:25:19;14.40;99.40
23251;DHT22;11794;49.730;10.088;2024-03-17T15:27:46;14.40;98.60
23251;DHT22;11794;49.730;10.088;2024-03-17T15:30:16;14.20;98.80
23251;DHT22;11794;49.730;10.088;2024-03-17T15:32:45;14.20;99.20
23251;DHT22;11794;49.730;10.088;2024-03-17T15:35:10;14.10;98.90
23251;DHT22;11794;49.730;10.088;2024-03-17T15:37:39;14.10;99.50
23251;DHT22;11794;49.730;10.088;2024-03-17T15:40:06;14.00;99.90